Piqua, Kentucky
Current Conditions -  °F | °C
As of 7:55 PM on Saturday 22 Nov 2014 (Local Time) from KFGX Reporting Station
Clear Clear  
Wind Chill: 45°   Ceiling: Unl
Heat Index: 47°   Visibility: 10mi
Dew Point: 31°   Wind: 6mph
Humidity: 53%   Direction: 170°S
Pressure: 30.15"   Gusts: NA
Location:  38.5189°N, 84.0521°W
Report Text: KFGX 230055Z AUTO 17005KT 10SM CLR 09/00 A3015 RMK AO2 T00861005
Loading
Personal Weather Stations






























Interactive Weather Map New forecast layout! Learn more

10-Day Weather Forecast

Advertisements
Track Severe Weather on mobile